Maydelle, Texas
Current Conditions -  °F | °C
As of 5:55 AM on Thursday 27 Nov 2014 (Local Time) from KJSO Reporting Station
Clear Clear  
Wind Chill: 37°   Ceiling: Unl
Heat Index: 42°   Visibility: 10mi
Dew Point: 31°   Wind: 7mph
Humidity: 64%   Direction: 20°NNE
Pressure: 30.46"   Gusts: NA
Location:  31.8°N, 95.3°W
Report Text: KJSO 271155Z AUTO 02006KT 10SM CLR 05/M01 A3046 RMK AO2 T00551008
Loading
Personal Weather Stations






























Interactive Weather Map New forecast layout! Learn more

10-Day Weather Forecast

Advertisements
Track Severe Weather on mobile